sensor_id;sensor_type;location;lat;lon;timestamp;P1;durP1;ratioP1;P2;durP2;ratioP2
61572;SDS011;47465;43.094;12.434;2023-02-21T00:01:00;32.53;;;20.60;;
61572;SDS011;47465;43.094;12.434;2023-02-21T00:04:02;32.47;;;21.63;;
61572;SDS011;47465;43.094;12.434;2023-02-21T00:07:01;35.45;;;21.92;;
61572;SDS011;47465;43.094;12.434;2023-02-21T00:10:00;35.88;;;22.92;;
61572;SDS011;47465;43.094;12.434;2023-02-21T00:13:01;31.42;;;20.60;;
61572;SDS011;47465;43.094;12.434;2023-02-21T00:16:00;34.47;;;20.65;;
61572;SDS011;47465;43.094;12.434;2023-02-21T00:19:18;37.72;;;23.33;;
61572;SDS011;47465;43.094;12.434;2023-02-21T00:22:19;42.42;;;24.92;;
61572;SDS011;47465;43.094;12.434;2023-02-21T00:25:25;42.00;;;24.20;;
61572;SDS011;47465;43.094;12.434;2023-02-21T00:28:26;36.60;;;24.27;;
61572;SDS011;47465;43.094;12.434;2023-02-21T00:31:26;40.90;;;23.90;;
61572;SDS011;47465;43.094;12.434;2023-02-21T00:34:25;35.45;;;22.00;;
61572;SDS011;47465;43.094;12.434;2023-02-21T00:37:24;36.38;;;22.70;;
61572;SDS011;47465;43.094;12.434;2023-02-21T00:40:24;40.50;;;24.98;;
61572;SDS011;47465;43.094;12.434;2023-02-21T00:43:28;56.95;;;30.45;;
61572;SDS011;47465;43.094;12.434;2023-02-21T00:46:28;49.42;;;28.88;;
61572;SDS011;47465;43.094;12.434;2023-02-21T00:49:24;50.60;;;27.13;;
61572;SDS011;47465;43.094;12.434;2023-02-21T00:52:25;47.33;;;26.92;;
61572;SDS011;47465;43.094;12.434;2023-02-21T00:55:24;53.78;;;28.17;;
61572;SDS011;47465;43.094;12.434;2023-02-21T00:58:24;56.88;;;29.63;;
61572;SDS011;47465;43.094;12.434;2023-02-21T01:01:24;40.13;;;25.25;;
61572;SDS011;47465;43.094;12.434;2023-02-21T01:04:25;36.92;;;23.48;;
61572;SDS011;47465;43.094;12.434;2023-02-21T01:07:24;37.35;;;23.40;;
61572;SDS011;47465;43.094;12.434;2023-02-21T01:10:24;36.58;;;22.30;;
61572;SDS011;47465;43.094;12.434;2023-02-21T01:13:23;32.65;;;21.15;;
61572;SDS011;47465;43.094;12.434;2023-02-21T01:16:22;32.72;;;20.60;;
61572;SDS011;47465;43.094;12.434;2023-02-21T01:19:21;34.05;;;21.05;;
61572;SDS011;47465;43.094;12.434;2023-02-21T01:22:24;36.63;;;21.98;;
61572;SDS011;47465;43.094;12.434;2023-02-21T01:25:24;35.60;;;22.23;;
61572;SDS011;47465;43.094;12.434;2023-02-21T01:28:24;35.30;;;21.17;;
61572;SDS011;47465;43.094;12.434;2023-02-21T01:31:42;35.88;;;22.77;;
61572;SDS011;47465;43.094;12.434;2023-02-21T01:34:41;33.03;;;21.08;;
61572;SDS011;47465;43.094;12.434;2023-02-21T01:37:40;33.10;;;21.67;;
61572;SDS011;47465;43.094;12.434;2023-02-21T01:40:41;34.22;;;21.77;;
61572;SDS011;47465;43.094;12.434;2023-02-21T01:46:57;32.97;;;21.02;;
61572;SDS011;47465;43.094;12.434;2023-02-21T01:49:57;35.83;;;21.38;;
61572;SDS011;47465;43.094;12.434;2023-02-21T01:52:57;34.70;;;21.73;;
61572;SDS011;47465;43.094;12.434;2023-02-21T01:56:00;31.83;;;22.40;;
61572;SDS011;47465;43.094;12.434;2023-02-21T01:59:00;33.40;;;22.50;;
61572;SDS011;47465;43.094;12.434;2023-02-21T02:02:01;34.35;;;22.45;;
61572;SDS011;47465;43.094;12.434;2023-02-21T02:05:05;33.42;;;21.73;;
61572;SDS011;47465;43.094;12.434;2023-02-21T02:08:07;33.53;;;24.20;;
61572;SDS011;47465;43.094;12.434;2023-02-21T02:11:10;36.55;;;23.23;;
61572;SDS011;47465;43.094;12.434;2023-02-21T02:14:34;35.50;;;22.52;;
61572;SDS011;47465;43.094;12.434;2023-02-21T02:17:19;36.45;;;22.60;;
61572;SDS011;47465;43.094;12.434;2023-02-21T02:19:58;38.78;;;22.73;;
61572;SDS011;47465;43.094;12.434;2023-02-21T02:23:03;34.70;;;22.58;;
61572;SDS011;47465;43.094;12.434;2023-02-21T02:25:51;39.55;;;21.77;;
61572;SDS011;47465;43.094;12.434;2023-02-21T02:28:38;32.17;;;22.13;;
61572;SDS011;47465;43.094;12.434;2023-02-21T02:31:24;31.65;;;21.38;;
61572;SDS011;47465;43.094;12.434;2023-02-21T02:39:30;34.45;;;22.55;;
61572;SDS011;47465;43.094;12.434;2023-02-21T02:42:06;31.02;;;21.50;;
61572;SDS011;47465;43.094;12.434;2023-02-21T02:44:41;34.55;;;21.50;;
61572;SDS011;47465;43.094;12.434;2023-02-21T02:47:15;36.90;;;21.98;;
61572;SDS011;47465;43.094;12.434;2023-02-21T02:49:46;32.50;;;21.90;;
61572;SDS011;47465;43.094;12.434;2023-02-21T02:52:16;35.58;;;21.98;;
61572;SDS011;47465;43.094;12.434;2023-02-21T02:54:42;33.85;;;22.08;;
61572;SDS011;47465;43.094;12.434;2023-02-21T02:57:08;32.47;;;21.52;;
61572;SDS011;47465;43.094;12.434;2023-02-21T02:59:38;31.50;;;21.17;;
61572;SDS011;47465;43.094;12.434;2023-02-21T03:02:16;33.17;;;21.27;;
61572;SDS011;47465;43.094;12.434;2023-02-21T03:05:02;32.53;;;20.47;;
61572;SDS011;47465;43.094;12.434;2023-02-21T03:07:44;31.75;;;20.45;;
61572;SDS011;47465;43.094;12.434;2023-02-21T03:10:17;32.13;;;20.33;;
61572;SDS011;47465;43.094;12.434;2023-02-21T03:12:49;30.52;;;21.00;;
61572;SDS011;47465;43.094;12.434;2023-02-21T03:15:21;31.77;;;21.02;;
61572;SDS011;47465;43.094;12.434;2023-02-21T03:17:53;33.33;;;21.02;;
61572;SDS011;47465;43.094;12.434;2023-02-21T03:20:23;32.38;;;21.38;;
61572;SDS011;47465;43.094;12.434;2023-02-21T03:22:53;36.35;;;21.92;;
61572;SDS011;47465;43.094;12.434;2023-02-21T03:25:22;33.20;;;20.98;;
61572;SDS011;47465;43.094;12.434;2023-02-21T03:27:49;32.55;;;22.05;;
61572;SDS011;47465;43.094;12.434;2023-02-21T03:30:18;30.67;;;20.02;;
61572;SDS011;47465;43.094;12.434;2023-02-21T03:32:46;31.58;;;20.95;;
61572;SDS011;47465;43.094;12.434;2023-02-21T03:35:14;34.55;;;20.83;;
61572;SDS011;47465;43.094;12.434;2023-02-21T03:37:41;30.98;;;19.90;;
61572;SDS011;47465;43.094;12.434;2023-02-21T03:40:10;31.23;;;19.50;;
61572;SDS011;47465;43.094;12.434;2023-02-21T03:42:38;32.45;;;20.48;;
61572;SDS011;47465;43.094;12.434;2023-02-21T03:45:04;32.35;;;20.33;;
61572;SDS011;47465;43.094;12.434;2023-02-21T03:47:30;31.10;;;20.15;;
61572;SDS011;47465;43.094;12.434;2023-02-21T03:49:56;30.67;;;20.20;;
61572;SDS011;47465;43.094;12.434;2023-02-21T03:52:22;29.13;;;18.88;;
61572;SDS011;47465;43.094;12.434;2023-02-21T03:54:48;27.67;;;18.77;;
61572;SDS011;47465;43.094;12.434;2023-02-21T03:57:16;29.00;;;18.05;;
61572;SDS011;47465;43.094;12.434;2023-02-21T03:59:42;28.25;;;18.27;;
61572;SDS011;47465;43.094;12.434;2023-02-21T04:02:08;35.25;;;22.52;;
61572;SDS011;47465;43.094;12.434;2023-02-21T04:04:33;34.03;;;21.73;;
61572;SDS011;47465;43.094;12.434;2023-02-21T04:07:00;35.58;;;21.23;;
61572;SDS011;47465;43.094;12.434;2023-02-21T04:09:26;31.35;;;21.48;;
61572;SDS011;47465;43.094;12.434;2023-02-21T04:11:52;29.17;;;20.83;;
61572;SDS011;47465;43.094;12.434;2023-02-21T04:14:19;37.78;;;22.38;;
61572;SDS011;47465;43.094;12.434;2023-02-21T04:16:45;31.83;;;19.58;;
61572;SDS011;47465;43.094;12.434;2023-02-21T04:19:11;31.38;;;20.85;;
61572;SDS011;47465;43.094;12.434;2023-02-21T04:21:37;33.72;;;21.08;;
61572;SDS011;47465;43.094;12.434;2023-02-21T04:24:03;31.58;;;21.08;;
61572;SDS011;47465;43.094;12.434;2023-02-21T04:26:29;31.83;;;19.80;;
61572;SDS011;47465;43.094;12.434;2023-02-21T04:28:55;32.72;;;21.48;;
61572;SDS011;47465;43.094;12.434;2023-02-21T04:31:22;33.35;;;21.33;;
61572;SDS011;47465;43.094;12.434;2023-02-21T04:33:48;34.92;;;22.38;;
61572;SDS011;47465;43.094;12.434;2023-02-21T04:36:14;33.30;;;20.85;;
61572;SDS011;47465;43.094;12.434;2023-02-21T04:38:40;27.48;;;19.30;;
61572;SDS011;47465;43.094;12.434;2023-02-21T04:41:06;30.42;;;19.98;;
61572;SDS011;47465;43.094;12.434;2023-02-21T04:43:32;32.17;;;21.73;;
61572;SDS011;47465;43.094;12.434;2023-02-21T04:45:58;33.75;;;21.67;;
61572;SDS011;47465;43.094;12.434;2023-02-21T04:48:25;34.67;;;23.90;;
61572;SDS011;47465;43.094;12.434;2023-02-21T04:50:51;34.70;;;22.13;;
61572;SDS011;47465;43.094;12.434;2023-02-21T04:53:17;40.65;;;24.88;;
61572;SDS011;47465;43.094;12.434;2023-02-21T04:55:43;38.85;;;24.08;;
61572;SDS011;47465;43.094;12.434;2023-02-21T04:58:09;41.45;;;24.48;;
61572;SDS011;47465;43.094;12.434;2023-02-21T05:00:35;39.88;;;26.73;;
61572;SDS011;47465;43.094;12.434;2023-02-21T05:03:00;46.53;;;28.85;;
61572;SDS011;47465;43.094;12.434;2023-02-21T05:05:28;44.30;;;27.88;;
61572;SDS011;47465;43.094;12.434;2023-02-21T05:07:54;45.35;;;27.83;;
61572;SDS011;47465;43.094;12.434;2023-02-21T05:10:20;42.10;;;28.13;;
61572;SDS011;47465;43.094;12.434;2023-02-21T05:12:46;42.50;;;28.30;;
61572;SDS011;47465;43.094;12.434;2023-02-21T05:15:12;44.00;;;28.92;;
61572;SDS011;47465;43.094;12.434;2023-02-21T05:17:38;40.47;;;27.23;;
61572;SDS011;47465;43.094;12.434;2023-02-21T05:20:05;45.40;;;29.10;;
61572;SDS011;47465;43.094;12.434;2023-02-21T05:22:37;47.58;;;29.85;;
61572;SDS011;47465;43.094;12.434;2023-02-21T05:25:04;44.57;;;29.33;;
61572;SDS011;47465;43.094;12.434;2023-02-21T05:27:30;46.67;;;29.70;;
61572;SDS011;47465;43.094;12.434;2023-02-21T05:29:56;51.17;;;30.13;;
61572;SDS011;47465;43.094;12.434;2023-02-21T05:32:22;44.80;;;30.15;;
61572;SDS011;47465;43.094;12.434;2023-02-21T05:34:48;44.63;;;28.90;;
61572;SDS011;47465;43.094;12.434;2023-02-21T05:37:14;44.10;;;29.20;;
61572;SDS011;47465;43.094;12.434;2023-02-21T05:39:43;44.03;;;29.13;;
61572;SDS011;47465;43.094;12.434;2023-02-21T05:42:08;42.42;;;29.45;;
61572;SDS011;47465;43.094;12.434;2023-02-21T05:44:34;47.92;;;30.23;;
61572;SDS011;47465;43.094;12.434;2023-02-21T05:47:00;46.03;;;31.58;;
61572;SDS011;47465;43.094;12.434;2023-02-21T05:49:27;50.15;;;31.52;;
61572;SDS011;47465;43.094;12.434;2023-02-21T05:51:53;42.70;;;28.67;;
61572;SDS011;47465;43.094;12.434;2023-02-21T05:54:20;50.42;;;29.08;;
61572;SDS011;47465;43.094;12.434;2023-02-21T05:56:48;44.95;;;27.77;;
61572;SDS011;47465;43.094;12.434;2023-02-21T05:59:16;41.97;;;27.27;;
61572;SDS011;47465;43.094;12.434;2023-02-21T06:01:43;38.23;;;25.47;;
61572;SDS011;47465;43.094;12.434;2023-02-21T06:04:09;38.55;;;24.60;;
61572;SDS011;47465;43.094;12.434;2023-02-21T06:06:36;43.67;;;25.48;;
61572;SDS011;47465;43.094;12.434;2023-02-21T06:09:02;40.03;;;25.85;;
61572;SDS011;47465;43.094;12.434;2023-02-21T06:11:29;38.10;;;24.48;;
61572;SDS011;47465;43.094;12.434;2023-02-21T06:13:59;38.10;;;25.50;;
61572;SDS011;47465;43.094;12.434;2023-02-21T06:16:30;41.35;;;25.63;;
61572;SDS011;47465;43.094;12.434;2023-02-21T06:18:57;38.75;;;25.13;;
61572;SDS011;47465;43.094;12.434;2023-02-21T06:21:22;41.72;;;26.67;;
61572;SDS011;47465;43.094;12.434;2023-02-21T06:23:48;39.08;;;25.00;;
61572;SDS011;47465;43.094;12.434;2023-02-21T06:26:15;38.50;;;27.13;;
61572;SDS011;47465;43.094;12.434;2023-02-21T06:28:42;40.50;;;25.17;;
61572;SDS011;47465;43.094;12.434;2023-02-21T06:31:09;38.67;;;25.63;;
61572;SDS011;47465;43.094;12.434;2023-02-21T06:33:38;41.70;;;27.45;;
61572;SDS011;47465;43.094;12.434;2023-02-21T06:36:09;40.65;;;26.83;;
61572;SDS011;47465;43.094;12.434;2023-02-21T06:38:38;43.60;;;25.20;;
61572;SDS011;47465;43.094;12.434;2023-02-21T06:41:04;39.92;;;24.67;;
61572;SDS011;47465;43.094;12.434;2023-02-21T06:43:33;40.15;;;25.60;;
61572;SDS011;47465;43.094;12.434;2023-02-21T06:46:00;36.72;;;24.30;;
61572;SDS011;47465;43.094;12.434;2023-02-21T06:48:28;38.75;;;23.77;;
61572;SDS011;47465;43.094;12.434;2023-02-21T06:50:54;35.55;;;22.25;;
61572;SDS011;47465;43.094;12.434;2023-02-21T06:53:19;40.05;;;22.85;;
61572;SDS011;47465;43.094;12.434;2023-02-21T06:55:45;37.13;;;23.17;;
61572;SDS011;47465;43.094;12.434;2023-02-21T06:58:11;35.50;;;22.92;;
61572;SDS011;47465;43.094;12.434;2023-02-21T07:00:38;38.42;;;23.05;;
61572;SDS011;47465;43.094;12.434;2023-02-21T07:03:04;32.70;;;22.02;;
61572;SDS011;47465;43.094;12.434;2023-02-21T07:05:31;38.00;;;22.92;;
61572;SDS011;47465;43.094;12.434;2023-02-21T07:08:02;35.83;;;22.00;;
61572;SDS011;47465;43.094;12.434;2023-02-21T07:10:28;33.72;;;21.92;;
61572;SDS011;47465;43.094;12.434;2023-02-21T07:12:55;36.92;;;23.02;;
61572;SDS011;47465;43.094;12.434;2023-02-21T07:15:21;33.72;;;21.70;;
61572;SDS011;47465;43.094;12.434;2023-02-21T07:17:47;33.53;;;22.08;;
61572;SDS011;47465;43.094;12.434;2023-02-21T07:20:13;35.80;;;22.30;;
61572;SDS011;47465;43.094;12.434;2023-02-21T07:22:41;32.05;;;21.35;;
61572;SDS011;47465;43.094;12.434;2023-02-21T07:25:06;36.20;;;21.77;;
61572;SDS011;47465;43.094;12.434;2023-02-21T07:27:32;34.63;;;21.60;;
61572;SDS011;47465;43.094;12.434;2023-02-21T07:29:58;35.13;;;22.08;;
61572;SDS011;47465;43.094;12.434;2023-02-21T07:32:24;35.08;;;21.50;;
61572;SDS011;47465;43.094;12.434;2023-02-21T07:34:50;34.33;;;21.05;;
61572;SDS011;47465;43.094;12.434;2023-02-21T07:37:16;33.17;;;22.08;;
61572;SDS011;47465;43.094;12.434;2023-02-21T07:39:44;35.03;;;20.73;;
61572;SDS011;47465;43.094;12.434;2023-02-21T07:42:09;35.72;;;22.08;;
61572;SDS011;47465;43.094;12.434;2023-02-21T07:44:37;34.88;;;21.73;;
61572;SDS011;47465;43.094;12.434;2023-02-21T07:47:03;34.10;;;20.58;;
61572;SDS011;47465;43.094;12.434;2023-02-21T07:49:29;36.60;;;20.33;;
61572;SDS011;47465;43.094;12.434;2023-02-21T07:51:55;38.72;;;21.55;;
61572;SDS011;47465;43.094;12.434;2023-02-21T07:54:20;34.25;;;20.50;;
61572;SDS011;47465;43.094;12.434;2023-02-21T07:56:49;33.03;;;20.85;;
61572;SDS011;47465;43.094;12.434;2023-02-21T07:59:15;38.80;;;21.33;;
61572;SDS011;47465;43.094;12.434;2023-02-21T08:01:40;35.40;;;22.02;;
61572;SDS011;47465;43.094;12.434;2023-02-21T08:04:07;34.95;;;21.98;;
61572;SDS011;47465;43.094;12.434;2023-02-21T08:06:32;35.17;;;21.15;;
61572;SDS011;47465;43.094;12.434;2023-02-21T08:08:59;37.88;;;21.55;;
61572;SDS011;47465;43.094;12.434;2023-02-21T08:11:25;37.63;;;22.85;;
61572;SDS011;47465;43.094;12.434;2023-02-21T08:13:52;37.30;;;23.30;;
61572;SDS011;47465;43.094;12.434;2023-02-21T08:16:18;40.60;;;23.85;;
61572;SDS011;47465;43.094;12.434;2023-02-21T08:18:45;37.97;;;23.23;;
61572;SDS011;47465;43.094;12.434;2023-02-21T08:21:11;36.42;;;22.70;;
61572;SDS011;47465;43.094;12.434;2023-02-21T08:23:37;38.90;;;21.85;;
61572;SDS011;47465;43.094;12.434;2023-02-21T08:26:03;32.50;;;21.60;;
61572;SDS011;47465;43.094;12.434;2023-02-21T08:28:30;37.30;;;22.92;;
61572;SDS011;47465;43.094;12.434;2023-02-21T08:30:57;34.90;;;22.20;;
61572;SDS011;47465;43.094;12.434;2023-02-21T08:33:23;35.60;;;21.73;;
61572;SDS011;47465;43.094;12.434;2023-02-21T08:35:50;36.33;;;22.50;;
61572;SDS011;47465;43.094;12.434;2023-02-21T08:38:16;36.63;;;21.23;;
61572;SDS011;47465;43.094;12.434;2023-02-21T08:40:43;37.42;;;23.08;;
61572;SDS011;47465;43.094;12.434;2023-02-21T08:43:09;36.50;;;22.20;;
61572;SDS011;47465;43.094;12.434;2023-02-21T08:45:35;38.95;;;23.40;;
61572;SDS011;47465;43.094;12.434;2023-02-21T08:48:03;39.70;;;24.05;;
61572;SDS011;47465;43.094;12.434;2023-02-21T08:50:29;38.65;;;22.38;;
61572;SDS011;47465;43.094;12.434;2023-02-21T08:52:55;37.08;;;23.05;;
61572;SDS011;47465;43.094;12.434;2023-02-21T08:55:21;36.30;;;23.23;;
61572;SDS011;47465;43.094;12.434;2023-02-21T08:57:48;37.78;;;23.17;;
61572;SDS011;47465;43.094;12.434;2023-02-21T09:00:15;37.67;;;23.67;;
61572;SDS011;47465;43.094;12.434;2023-02-21T09:02:42;40.78;;;22.90;;
61572;SDS011;47465;43.094;12.434;2023-02-21T09:05:10;35.45;;;22.67;;
61572;SDS011;47465;43.094;12.434;2023-02-21T09:07:38;39.40;;;22.30;;
61572;SDS011;47465;43.094;12.434;2023-02-21T09:10:04;34.30;;;21.90;;
61572;SDS011;47465;43.094;12.434;2023-02-21T09:12:31;37.85;;;22.30;;
61572;SDS011;47465;43.094;12.434;2023-02-21T09:14:57;36.72;;;22.98;;
61572;SDS011;47465;43.094;12.434;2023-02-21T09:17:23;37.15;;;22.55;;
61572;SDS011;47465;43.094;12.434;2023-02-21T09:19:49;36.65;;;22.25;;
61572;SDS011;47465;43.094;12.434;2023-02-21T09:22:16;40.80;;;23.40;;
61572;SDS011;47465;43.094;12.434;2023-02-21T09:24:42;36.60;;;22.48;;
61572;SDS011;47465;43.094;12.434;2023-02-21T09:27:08;36.40;;;22.08;;
61572;SDS011;47465;43.094;12.434;2023-02-21T09:29:34;36.25;;;21.75;;
61572;SDS011;47465;43.094;12.434;2023-02-21T09:32:01;37.30;;;21.58;;
61572;SDS011;47465;43.094;12.434;2023-02-21T09:34:27;34.83;;;21.30;;
61572;SDS011;47465;43.094;12.434;2023-02-21T09:36:54;40.53;;;24.30;;
61572;SDS011;47465;43.094;12.434;2023-02-21T09:39:21;43.47;;;27.02;;
61572;SDS011;47465;43.094;12.434;2023-02-21T09:41:48;43.83;;;25.80;;
61572;SDS011;47465;43.094;12.434;2023-02-21T09:44:16;43.60;;;26.80;;
61572;SDS011;47465;43.094;12.434;2023-02-21T09:46:45;42.47;;;26.77;;
61572;SDS011;47465;43.094;12.434;2023-02-21T09:49:16;43.92;;;28.67;;
61572;SDS011;47465;43.094;12.434;2023-02-21T09:51:46;48.20;;;30.08;;
61572;SDS011;47465;43.094;12.434;2023-02-21T09:54:15;48.45;;;29.10;;
61572;SDS011;47465;43.094;12.434;2023-02-21T09:56:48;45.53;;;29.17;;
61572;SDS011;47465;43.094;12.434;2023-02-21T09:59:14;41.80;;;27.15;;
61572;SDS011;47465;43.094;12.434;2023-02-21T10:01:46;42.90;;;27.83;;
61572;SDS011;47465;43.094;12.434;2023-02-21T10:04:21;40.40;;;25.10;;
61572;SDS011;47465;43.094;12.434;2023-02-21T10:06:58;43.65;;;25.73;;
61572;SDS011;47465;43.094;12.434;2023-02-21T10:09:33;42.17;;;26.23;;
61572;SDS011;47465;43.094;12.434;2023-02-21T10:12:09;44.20;;;26.73;;
61572;SDS011;47465;43.094;12.434;2023-02-21T10:14:46;40.55;;;26.05;;
61572;SDS011;47465;43.094;12.434;2023-02-21T10:17:26;41.60;;;26.20;;
61572;SDS011;47465;43.094;12.434;2023-02-21T10:19:59;43.05;;;26.35;;
61572;SDS011;47465;43.094;12.434;2023-02-21T10:22:31;38.17;;;22.85;;
61572;SDS011;47465;43.094;12.434;2023-02-21T10:24:59;29.98;;;17.48;;
61572;SDS011;47465;43.094;12.434;2023-02-21T10:27:29;30.88;;;18.85;;
61572;SDS011;47465;43.094;12.434;2023-02-21T10:29:58;33.08;;;20.33;;
61572;SDS011;47465;43.094;12.434;2023-02-21T10:32:28;37.78;;;24.25;;
61572;SDS011;47465;43.094;12.434;2023-02-21T10:34:54;87.57;;;39.35;;
61572;SDS011;47465;43.094;12.434;2023-02-21T10:37:25;74.80;;;34.27;;
61572;SDS011;47465;43.094;12.434;2023-02-21T10:39:59;43.80;;;24.05;;
61572;SDS011;47465;43.094;12.434;2023-02-21T10:42:33;39.30;;;23.08;;
61572;SDS011;47465;43.094;12.434;2023-02-21T10:45:03;50.67;;;26.50;;
61572;SDS011;47465;43.094;12.434;2023-02-21T10:47:33;44.28;;;24.45;;
61572;SDS011;47465;43.094;12.434;2023-02-21T10:50:09;47.63;;;24.90;;
61572;SDS011;47465;43.094;12.434;2023-02-21T10:52:36;47.45;;;27.35;;
61572;SDS011;47465;43.094;12.434;2023-02-21T10:55:12;45.58;;;26.60;;
61572;SDS011;47465;43.094;12.434;2023-02-21T10:57:43;47.15;;;25.65;;
61572;SDS011;47465;43.094;12.434;2023-02-21T11:00:18;42.60;;;23.80;;
61572;SDS011;47465;43.094;12.434;2023-02-21T11:02:48;44.67;;;24.48;;
61572;SDS011;47465;43.094;12.434;2023-02-21T11:05:18;46.10;;;25.35;;
61572;SDS011;47465;43.094;12.434;2023-02-21T11:07:54;43.60;;;23.92;;
61572;SDS011;47465;43.094;12.434;2023-02-21T11:10:27;34.03;;;19.90;;
61572;SDS011;47465;43.094;12.434;2023-02-21T11:13:04;30.02;;;18.58;;
61572;SDS011;47465;43.094;12.434;2023-02-21T11:15:32;29.20;;;18.38;;
61572;SDS011;47465;43.094;12.434;2023-02-21T11:18:02;25.98;;;17.05;;
61572;SDS011;47465;43.094;12.434;2023-02-21T11:20:30;30.35;;;19.42;;
61572;SDS011;47465;43.094;12.434;2023-02-21T11:22:57;34.78;;;20.38;;
61572;SDS011;47465;43.094;12.434;2023-02-21T11:25:24;34.03;;;21.23;;
61572;SDS011;47465;43.094;12.434;2023-02-21T11:28:04;35.35;;;20.10;;
61572;SDS011;47465;43.094;12.434;2023-02-21T11:32:58;37.92;;;20.13;;
61572;SDS011;47465;43.094;12.434;2023-02-21T11:35:26;34.45;;;20.15;;
61572;SDS011;47465;43.094;12.434;2023-02-21T11:37:56;35.60;;;20.08;;
61572;SDS011;47465;43.094;12.434;2023-02-21T11:40:30;30.37;;;18.97;;
61572;SDS011;47465;43.094;12.434;2023-02-21T11:43:11;36.78;;;18.95;;
61572;SDS011;47465;43.094;12.434;2023-02-21T11:45:54;26.20;;;17.30;;
61572;SDS011;47465;43.094;12.434;2023-02-21T11:48:37;29.38;;;18.92;;
61572;SDS011;47465;43.094;12.434;2023-02-21T11:51:13;26.77;;;16.38;;
61572;SDS011;47465;43.094;12.434;2023-02-21T11:53:47;24.02;;;15.20;;
61572;SDS011;47465;43.094;12.434;2023-02-21T11:56:16;23.08;;;13.80;;
61572;SDS011;47465;43.094;12.434;2023-02-21T12:05:33;21.67;;;12.15;;
61572;SDS011;47465;43.094;12.434;2023-02-21T12:08:20;22.10;;;12.23;;
61572;SDS011;47465;43.094;12.434;2023-02-21T12:11:05;20.27;;;12.40;;
61572;SDS011;47465;43.094;12.434;2023-02-21T12:16:09;19.35;;;11.93;;
61572;SDS011;47465;43.094;12.434;2023-02-21T12:18:49;22.05;;;12.43;;
61572;SDS011;47465;43.094;12.434;2023-02-21T12:24:42;19.48;;;11.48;;
61572;SDS011;47465;43.094;12.434;2023-02-21T12:27:23;18.65;;;12.38;;
61572;SDS011;47465;43.094;12.434;2023-02-21T12:30:02;18.92;;;11.23;;
61572;SDS011;47465;43.094;12.434;2023-02-21T12:32:43;19.85;;;10.70;;
61572;SDS011;47465;43.094;12.434;2023-02-21T12:38:28;19.92;;;11.50;;
61572;SDS011;47465;43.094;12.434;2023-02-21T12:41:03;20.58;;;12.23;;
61572;SDS011;47465;43.094;12.434;2023-02-21T12:43:43;19.45;;;11.27;;
61572;SDS011;47465;43.094;12.434;2023-02-21T12:46:18;18.92;;;11.90;;
61572;SDS011;47465;43.094;12.434;2023-02-21T12:51:57;22.23;;;12.07;;
61572;SDS011;47465;43.094;12.434;2023-02-21T12:54:33;17.48;;;10.30;;
61572;SDS011;47465;43.094;12.434;2023-02-21T12:57:06;20.25;;;11.63;;
61572;SDS011;47465;43.094;12.434;2023-02-21T12:59:41;18.02;;;11.13;;
61572;SDS011;47465;43.094;12.434;2023-02-21T13:02:18;21.95;;;12.15;;
61572;SDS011;47465;43.094;12.434;2023-02-21T13:04:51;17.17;;;11.05;;
61572;SDS011;47465;43.094;12.434;2023-02-21T13:07:22;17.80;;;10.77;;
61572;SDS011;47465;43.094;12.434;2023-02-21T13:13:01;16.73;;;9.25;;
61572;SDS011;47465;43.094;12.434;2023-02-21T13:18:43;17.23;;;10.10;;
61572;SDS011;47465;43.094;12.434;2023-02-21T13:21:18;15.52;;;10.15;;
61572;SDS011;47465;43.094;12.434;2023-02-21T13:33:58;21.25;;;11.68;;
61572;SDS011;47465;43.094;12.434;2023-02-21T13:36:27;19.75;;;10.60;;
61572;SDS011;47465;43.094;12.434;2023-02-21T13:38:57;19.45;;;11.95;;
61572;SDS011;47465;43.094;12.434;2023-02-21T13:41:27;17.55;;;11.55;;
61572;SDS011;47465;43.094;12.434;2023-02-21T13:43:57;17.75;;;11.02;;
61572;SDS011;47465;43.094;12.434;2023-02-21T13:49:42;18.20;;;11.93;;
61572;SDS011;47465;43.094;12.434;2023-02-21T13:55:27;19.33;;;12.30;;
61572;SDS011;47465;43.094;12.434;2023-02-21T14:01:18;18.33;;;12.25;;
61572;SDS011;47465;43.094;12.434;2023-02-21T14:04:01;21.23;;;12.77;;
61572;SDS011;47465;43.094;12.434;2023-02-21T14:07:02;21.55;;;12.82;;
61572;SDS011;47465;43.094;12.434;2023-02-21T14:09:28;24.58;;;13.80;;
61572;SDS011;47465;43.094;12.434;2023-02-21T14:12:06;21.60;;;12.88;;
61572;SDS011;47465;43.094;12.434;2023-02-21T14:14:39;24.77;;;14.55;;
61572;SDS011;47465;43.094;12.434;2023-02-21T14:17:08;23.25;;;13.77;;
61572;SDS011;47465;43.094;12.434;2023-02-21T14:19:41;26.65;;;15.15;;
61572;SDS011;47465;43.094;12.434;2023-02-21T14:22:11;21.80;;;14.48;;
61572;SDS011;47465;43.094;12.434;2023-02-21T14:24:41;23.02;;;14.30;;
61572;SDS011;47465;43.094;12.434;2023-02-21T14:33:05;21.48;;;14.32;;
61572;SDS011;47465;43.094;12.434;2023-02-21T14:35:45;23.48;;;14.65;;
61572;SDS011;47465;43.094;12.434;2023-02-21T14:38:16;23.17;;;13.18;;
61572;SDS011;47465;43.094;12.434;2023-02-21T14:40:48;20.50;;;12.63;;
61572;SDS011;47465;43.094;12.434;2023-02-21T14:43:36;25.15;;;13.00;;
61572;SDS011;47465;43.094;12.434;2023-02-21T14:48:58;22.55;;;14.10;;
61572;SDS011;47465;43.094;12.434;2023-02-21T14:51:49;24.98;;;16.38;;
61572;SDS011;47465;43.094;12.434;2023-02-21T14:57:37;23.25;;;13.38;;
61572;SDS011;47465;43.094;12.434;2023-02-21T15:00:17;25.50;;;15.23;;
61572;SDS011;47465;43.094;12.434;2023-02-21T15:02:51;24.00;;;15.68;;
61572;SDS011;47465;43.094;12.434;2023-02-21T15:08:01;22.92;;;14.25;;
61572;SDS011;47465;43.094;12.434;2023-02-21T15:10:38;30.08;;;16.90;;
61572;SDS011;47465;43.094;12.434;2023-02-21T15:13:06;27.83;;;16.65;;
61572;SDS011;47465;43.094;12.434;2023-02-21T15:15:46;25.08;;;14.50;;
61572;SDS011;47465;43.094;12.434;2023-02-21T15:18:22;26.10;;;14.40;;
61572;SDS011;47465;43.094;12.434;2023-02-21T15:21:02;30.85;;;16.88;;
61572;SDS011;47465;43.094;12.434;2023-02-21T15:23:33;24.58;;;14.65;;
61572;SDS011;47465;43.094;12.434;2023-02-21T15:26:00;32.20;;;18.52;;
61572;SDS011;47465;43.094;12.434;2023-02-21T15:28:45;31.30;;;15.85;;
61572;SDS011;47465;43.094;12.434;2023-02-21T15:31:11;26.58;;;15.85;;
61572;SDS011;47465;43.094;12.434;2023-02-21T15:33:38;30.83;;;16.95;;
61572;SDS011;47465;43.094;12.434;2023-02-21T15:36:08;24.83;;;15.73;;
61572;SDS011;47465;43.094;12.434;2023-02-21T15:38:42;30.85;;;17.45;;
61572;SDS011;47465;43.094;12.434;2023-02-21T15:41:13;29.40;;;15.85;;
61572;SDS011;47465;43.094;12.434;2023-02-21T15:43:50;28.67;;;16.38;;
61572;SDS011;47465;43.094;12.434;2023-02-21T15:46:21;27.42;;;16.60;;
61572;SDS011;47465;43.094;12.434;2023-02-21T15:48:49;32.38;;;17.63;;
61572;SDS011;47465;43.094;12.434;2023-02-21T15:54:07;34.45;;;20.52;;
61572;SDS011;47465;43.094;12.434;2023-02-21T15:57:01;34.88;;;20.90;;
61572;SDS011;47465;43.094;12.434;2023-02-21T15:59:29;41.28;;;23.10;;
61572;SDS011;47465;43.094;12.434;2023-02-21T16:02:06;37.63;;;20.35;;